Time;durP1;ratioP1;P1;durP2;ratioP2;P2;SDS_P1;SDS_P2;PMS_P1;PMS_P2;Temp;Humidity;BMP_temperature;BMP_pressure;BME280_temperature;BME280_humidity;BME280_pressure;Samples;Min_cycle;Max_cycle;Signal;HPM_P1;HPM_P2
2023/07/19 00:01:34;;;;;;;26.57;24.80;;;19.50;99.90;;;;;;6243657;23;20435;-72
2023/07/19 00:04:01;;;;;;;27.47;25.03;;;19.50;99.90;;;;;;6243970;23;20414;-72
2023/07/19 00:06:28;;;;;;;25.00;23.40;;;19.50;99.90;;;;;;6243964;23;20403;-72
2023/07/19 00:08:56;;;;;;;27.53;25.17;;;19.40;99.90;;;;;;6243956;23;20911;-72
2023/07/19 00:11:22;;;;;;;25.07;23.10;;;19.50;99.90;;;;;;6244072;23;20403;-72
2023/07/19 00:13:49;;;;;;;24.67;22.97;;;19.50;99.90;;;;;;6243467;23;20919;-71
2023/07/19 00:16:16;;;;;;;27.20;24.90;;;19.50;99.90;;;;;;6244220;23;20426;-70
2023/07/19 00:18:42;;;;;;;24.67;22.87;;;19.50;99.90;;;;;;6244187;23;20408;-71
2023/07/19 00:21:09;;;;;;;24.57;22.97;;;19.50;99.90;;;;;;6244038;23;20444;-71
2023/07/19 00:23:38;;;;;;;25.90;24.10;;;19.50;99.90;;;;;;6244077;23;20408;-71
2023/07/19 00:26:06;;;;;;;25.20;23.60;;;19.50;99.90;;;;;;6244637;23;20416;-72
2023/07/19 00:28:32;;;;;;;26.33;24.53;;;19.50;99.90;;;;;;6243815;23;20900;-72
2023/07/19 00:31:01;;;;;;;25.73;24.00;;;19.60;99.90;;;;;;6244118;23;20407;-72
2023/07/19 00:33:27;;;;;;;25.47;23.90;;;19.50;99.90;;;;;;6243890;23;20411;-72
2023/07/19 00:35:54;;;;;;;27.87;25.80;;;19.50;99.90;;;;;;6244285;23;20414;-72
2023/07/19 00:38:21;;;;;;;26.30;24.23;;;19.50;99.90;;;;;;6244183;23;20431;-71
2023/07/19 00:40:48;;;;;;;29.20;27.13;;;19.50;99.90;;;;;;6243985;23;20439;-71
2023/07/19 00:43:16;;;;;;;27.10;25.30;;;19.50;99.90;;;;;;6243625;23;20423;-71
2023/07/19 00:45:46;;;;;;;27.70;25.57;;;19.50;99.90;;;;;;6243865;23;20412;-71
2023/07/19 00:48:14;;;;;;;26.00;24.30;;;19.40;99.90;;;;;;6243911;23;20400;-71
2023/07/19 00:50:42;;;;;;;30.03;27.10;;;19.40;99.90;;;;;;6243942;23;20408;-71
2023/07/19 00:53:09;;;;;;;27.70;25.60;;;19.30;99.90;;;;;;6244042;22;20428;-71
2023/07/19 00:55:36;;;;;;;28.37;26.27;;;19.30;99.90;;;;;;6243535;23;20439;-71
2023/07/19 00:58:02;;;;;;;26.90;25.20;;;19.30;99.90;;;;;;6243788;23;20415;-70
2023/07/19 01:00:31;;;;;;;28.47;26.17;;;19.30;99.90;;;;;;6243674;23;20736;-69
2023/07/19 01:02:58;;;;;;;30.37;28.30;;;19.30;99.90;;;;;;6243721;23;20392;-71
2023/07/19 01:05:24;;;;;;;28.10;25.73;;;19.30;99.90;;;;;;6244023;23;20404;-70
2023/07/19 01:07:51;;;;;;;29.80;27.40;;;19.30;99.90;;;;;;6243884;23;20740;-71
2023/07/19 01:10:18;;;;;;;28.70;26.30;;;19.30;99.90;;;;;;6243709;23;20400;-70
2023/07/19 01:12:45;;;;;;;27.50;25.50;;;19.30;99.90;;;;;;6243564;23;20419;-70
2023/07/19 01:15:12;;;;;;;27.23;25.00;;;19.30;99.90;;;;;;6243720;23;20436;-72
2023/07/19 01:17:40;;;;;;;27.37;25.40;;;19.30;99.90;;;;;;6243421;23;20909;-70
2023/07/19 01:20:08;;;;;;;28.70;26.70;;;19.30;99.90;;;;;;6243889;23;20404;-70
2023/07/19 01:22:36;;;;;;;28.00;26.03;;;19.20;99.90;;;;;;6243673;23;20501;-70
2023/07/19 01:25:03;;;;;;;28.17;26.27;;;19.20;99.90;;;;;;6243520;23;20407;-71
2023/07/19 01:27:30;;;;;;;27.87;25.87;;;19.20;99.90;;;;;;6243632;23;20447;-71
2023/07/19 01:29:57;;;;;;;28.03;25.87;;;19.30;99.90;;;;;;6243192;23;20900;-71
2023/07/19 01:32:23;;;;;;;26.80;25.10;;;19.30;99.90;;;;;;6243655;23;20400;-71
2023/07/19 01:34:50;;;;;;;27.70;25.23;;;19.30;99.90;;;;;;6243584;23;20400;-72
2023/07/19 01:37:17;;;;;;;27.90;25.70;;;19.20;99.90;;;;;;6243463;23;20412;-71
2023/07/19 01:39:45;;;;;;;27.87;25.73;;;19.20;99.90;;;;;;6243196;23;20392;-72
2023/07/19 01:42:12;;;;;;;29.20;26.70;;;19.20;99.90;;;;;;6243384;23;20450;-71
2023/07/19 01:44:39;;;;;;;29.03;26.63;;;19.10;99.90;;;;;;6243699;23;20747;-71
2023/07/19 01:47:05;;;;;;;28.37;26.17;;;19.00;99.90;;;;;;6243379;23;20404;-72
2023/07/19 01:49:32;;;;;;;30.33;28.23;;;19.00;99.90;;;;;;6242567;23;20412;-71
2023/07/19 01:51:59;;;;;;;27.77;25.80;;;19.00;99.90;;;;;;6241969;23;20400;-72
2023/07/19 01:54:25;;;;;;;28.70;26.60;;;18.90;99.90;;;;;;6241839;22;20771;-72
2023/07/19 01:56:53;;;;;;;28.83;26.87;;;18.90;99.90;;;;;;6242398;23;20400;-72
2023/07/19 01:59:20;;;;;;;28.60;26.47;;;18.90;99.90;;;;;;6241523;23;20408;-72
2023/07/19 02:01:47;;;;;;;30.00;27.70;;;19.00;99.90;;;;;;6241716;23;20443;-72
2023/07/19 02:04:13;;;;;;;28.10;25.90;;;19.00;99.90;;;;;;6241890;23;20399;-73
2023/07/19 02:06:40;;;;;;;30.90;28.70;;;18.90;99.90;;;;;;6241746;23;20487;-72
2023/07/19 02:09:07;;;;;;;29.87;27.47;;;19.00;99.90;;;;;;6241784;23;20900;-75
2023/07/19 02:14:10;;;;;;;28.83;26.80;;;19.00;99.90;;;;;;6190818;22;21391;-82
2023/07/19 02:16:37;;;;;;;31.70;29.30;;;18.90;99.90;;;;;;6242260;23;20407;-83
2023/07/19 02:19:06;;;;;;;33.53;30.53;;;19.00;99.90;;;;;;6244161;23;20411;-83
2023/07/19 02:21:32;;;;;;;33.23;30.60;;;18.90;99.90;;;;;;6243630;23;20743;-82
2023/07/19 02:23:59;;;;;;;31.67;29.07;;;18.80;99.90;;;;;;6243491;23;20404;-82
2023/07/19 02:26:26;;;;;;;29.87;27.57;;;18.80;99.90;;;;;;6243611;23;20404;-80
2023/07/19 02:28:53;;;;;;;31.40;28.83;;;18.70;99.90;;;;;;6243710;23;20408;-80
2023/07/19 02:31:21;;;;;;;32.07;28.73;;;18.70;99.90;;;;;;6243900;23;20410;-80
2023/07/19 02:33:48;;;;;;;31.50;28.80;;;18.70;99.90;;;;;;6243712;23;20419;-81
2023/07/19 02:36:15;;;;;;;32.43;29.73;;;18.70;99.90;;;;;;6242983;23;20744;-80
2023/07/19 02:38:44;;;;;;;32.70;29.70;;;18.70;99.90;;;;;;6242154;23;20424;-82
2023/07/19 02:41:10;;;;;;;32.17;29.60;;;18.70;99.90;;;;;;6243018;23;20907;-81
2023/07/19 02:43:37;;;;;;;33.13;30.63;;;18.70;99.90;;;;;;6243957;23;20404;-82
2023/07/19 02:46:04;;;;;;;31.60;29.30;;;18.80;99.90;;;;;;6243241;23;20400;-81
2023/07/19 02:48:32;;;;;;;31.63;28.93;;;18.80;99.90;;;;;;6243248;23;20408;-81
2023/07/19 02:50:58;;;;;;;28.20;25.90;;;18.70;99.90;;;;;;6246679;23;20415;-81
2023/07/19 02:53:25;;;;;;;28.70;26.60;;;18.70;99.90;;;;;;6246382;23;20400;-81
2023/07/19 02:55:52;;;;;;;27.10;25.30;;;18.60;99.90;;;;;;6245901;23;20443;-80
2023/07/19 02:58:18;;;;;;;29.60;27.20;;;18.60;99.90;;;;;;6244441;23;20400;-80
2023/07/19 03:00:45;;;;;;;27.10;25.07;;;18.50;99.90;;;;;;6243921;23;20777;-81
2023/07/19 03:03:13;;;;;;;29.40;27.20;;;18.60;99.90;;;;;;6243731;23;20482;-82
2023/07/19 03:05:44;;;;;;;28.30;26.27;;;18.50;99.90;;;;;;6244000;23;20408;-82
2023/07/19 03:08:12;;;;;;;29.03;26.97;;;18.50;99.90;;;;;;6244703;23;20399;-81
2023/07/19 03:10:39;;;;;;;29.47;27.20;;;18.60;99.90;;;;;;6243747;23;20461;-80
2023/07/19 03:13:07;;;;;;;31.83;29.30;;;18.60;99.90;;;;;;6237984;23;20429;-80
2023/07/19 03:15:34;;;;;;;32.47;29.57;;;18.60;99.90;;;;;;6213234;23;20983;-81
2023/07/19 03:18:01;;;;;;;31.23;28.73;;;18.60;99.90;;;;;;6213483;23;20409;-81
2023/07/19 03:20:28;;;;;;;32.63;30.13;;;18.60;99.90;;;;;;6213357;23;20412;-79
2023/07/19 03:22:57;;;;;;;30.83;28.43;;;18.60;99.90;;;;;;6213872;23;20476;-81
2023/07/19 03:25:23;;;;;;;29.53;27.30;;;18.60;99.90;;;;;;6213647;23;20414;-82
2023/07/19 03:27:50;;;;;;;28.77;26.67;;;18.60;99.90;;;;;;6214006;23;20404;-82
2023/07/19 03:30:17;;;;;;;30.50;28.27;;;18.50;99.90;;;;;;6214380;23;20409;-83
2023/07/19 03:32:44;;;;;;;29.43;27.33;;;18.40;99.90;;;;;;6213790;23;20427;-83
2023/07/19 03:35:10;;;;;;;28.63;26.50;;;18.40;99.90;;;;;;6213994;23;20416;-83
2023/07/19 03:37:37;;;;;;;27.33;25.30;;;18.40;99.90;;;;;;6213806;23;20413;-83
2023/07/19 03:40:07;;;;;;;28.03;26.13;;;18.40;99.90;;;;;;6214113;23;20416;-82
2023/07/19 03:42:34;;;;;;;27.93;25.77;;;18.40;99.90;;;;;;6213887;23;20766;-83
2023/07/19 03:45:00;;;;;;;28.17;26.03;;;18.40;99.90;;;;;;6214347;23;20413;-82
2023/07/19 03:47:27;;;;;;;29.30;27.43;;;18.30;99.90;;;;;;6213634;23;20468;-83
2023/07/19 03:49:54;;;;;;;30.33;28.07;;;18.30;99.90;;;;;;6215128;23;20404;-82
2023/07/19 03:52:20;;;;;;;31.00;28.40;;;18.30;99.90;;;;;;6214989;23;20401;-80
2023/07/19 03:54:47;;;;;;;31.20;28.90;;;18.30;99.90;;;;;;6214194;23;20900;-79
2023/07/19 03:57:15;;;;;;;28.50;26.17;;;18.30;99.90;;;;;;6214684;23;20412;-80
2023/07/19 03:59:42;;;;;;;31.00;28.80;;;18.30;99.90;;;;;;6214710;23;20401;-81
2023/07/19 04:02:09;;;;;;;30.37;27.27;;;18.30;99.90;;;;;;6214746;23;20519;-80
2023/07/19 04:04:35;;;;;;;29.20;26.87;;;18.30;99.90;;;;;;6215657;23;20415;-81
2023/07/19 04:07:02;;;;;;;28.13;26.03;;;18.30;99.90;;;;;;6214684;23;20416;-81
2023/07/19 04:09:29;;;;;;;28.53;26.20;;;18.30;99.90;;;;;;6215064;23;20405;-79
2023/07/19 04:11:55;;;;;;;30.47;28.27;;;18.30;99.90;;;;;;6214764;23;20412;-80
2023/07/19 04:14:23;;;;;;;29.47;26.83;;;18.30;99.90;;;;;;6214300;23;20492;-82
2023/07/19 04:16:50;;;;;;;28.30;26.10;;;18.30;99.90;;;;;;6215699;23;20753;-81
2023/07/19 04:19:17;;;;;;;26.10;24.40;;;18.30;99.90;;;;;;6214885;23;20440;-79
2023/07/19 04:21:43;;;;;;;27.83;25.77;;;18.20;99.90;;;;;;6215360;23;20432;-79
2023/07/19 04:24:10;;;;;;;28.10;26.27;;;18.30;99.90;;;;;;6215731;23;20404;-79
2023/07/19 04:26:37;;;;;;;30.60;28.20;;;18.30;99.90;;;;;;6214432;23;20739;-79
2023/07/19 04:29:04;;;;;;;27.13;25.23;;;18.30;99.90;;;;;;6214319;23;20416;-78
2023/07/19 04:31:32;;;;;;;28.23;25.93;;;18.30;99.90;;;;;;6214404;23;20417;-78
2023/07/19 04:33:58;;;;;;;27.30;25.40;;;18.40;99.90;;;;;;6214253;23;20428;-79
2023/07/19 04:36:25;;;;;;;27.87;25.83;;;18.40;99.90;;;;;;6214129;23;20420;-77
2023/07/19 04:38:52;;;;;;;27.30;25.47;;;18.50;99.90;;;;;;6214107;23;20405;-78
2023/07/19 04:41:18;;;;;;;27.23;25.33;;;18.50;99.90;;;;;;6214582;23;20405;-80
2023/07/19 04:43:45;;;;;;;28.50;26.60;;;18.60;99.90;;;;;;6213917;23;20441;-79
2023/07/19 04:46:12;;;;;;;28.73;26.70;;;18.70;99.90;;;;;;6215976;23;20409;-79
2023/07/19 04:48:40;;;;;;;28.17;26.17;;;18.90;99.90;;;;;;6214030;23;20428;-78
2023/07/19 04:51:07;;;;;;;26.70;24.70;;;19.10;99.90;;;;;;6214367;23;20416;-77
2023/07/19 04:53:33;;;;;;;27.30;25.60;;;19.40;99.90;;;;;;6213637;23;20451;-78
2023/07/19 04:56:00;;;;;;;28.07;26.13;;;19.70;99.90;;;;;;6213500;23;20404;-76
2023/07/19 04:58:27;;;;;;;30.23;28.03;;;20.00;99.90;;;;;;6213682;23;20967;-76
2023/07/19 05:00:54;;;;;;;35.00;32.17;;;20.30;99.90;;;;;;6214030;23;20904;-76
2023/07/19 05:03:21;;;;;;;32.40;30.20;;;20.50;99.90;;;;;;6214287;23;20452;-76
2023/07/19 05:05:50;;;;;;;33.60;31.07;;;20.60;99.90;;;;;;6214762;23;20412;-76
2023/07/19 05:08:17;;;;;;;32.40;29.93;;;20.60;99.90;;;;;;6216642;23;20412;-76
2023/07/19 05:10:43;;;;;;;29.47;27.50;;;20.70;99.90;;;;;;6216559;23;20412;-76
2023/07/19 05:13:10;;;;;;;29.93;27.83;;;21.00;99.90;;;;;;6216254;23;20425;-76
2023/07/19 05:15:37;;;;;;;29.07;26.97;;;21.10;99.90;;;;;;6213617;23;20763;-76
2023/07/19 05:18:03;;;;;;;29.37;27.20;;;21.30;99.90;;;;;;6214274;23;20412;-76
2023/07/19 05:20:30;;;;;;;30.40;28.30;;;21.30;99.90;;;;;;6215557;23;20409;-76
2023/07/19 05:22:58;;;;;;;31.63;29.53;;;21.40;99.90;;;;;;6231398;23;20774;-76
2023/07/19 05:25:25;;;;;;;28.03;25.70;;;21.40;99.90;;;;;;6224408;23;20416;-77
2023/07/19 05:27:52;;;;;;;28.37;26.37;;;21.60;99.90;;;;;;6216840;23;20409;-76
2023/07/19 05:30:18;;;;;;;29.23;27.13;;;21.70;99.90;;;;;;6216296;23;20409;-76
2023/07/19 05:32:45;;;;;;;28.30;26.13;;;21.70;99.90;;;;;;6215323;23;20397;-75
2023/07/19 05:35:12;;;;;;;28.87;26.73;;;21.70;99.90;;;;;;6214419;23;20841;-75
2023/07/19 05:37:39;;;;;;;27.77;25.10;;;21.90;99.90;;;;;;6213389;23;20416;-75
2023/07/19 05:40:09;;;;;;;26.70;24.83;;;22.10;99.90;;;;;;6212309;23;20421;-75
2023/07/19 05:42:36;;;;;;;27.50;25.70;;;22.50;99.90;;;;;;6212995;23;20475;-75
2023/07/19 05:45:03;;;;;;;24.73;23.13;;;22.70;99.90;;;;;;6212965;23;20413;-76
2023/07/19 05:47:30;;;;;;;23.87;22.37;;;23.00;99.90;;;;;;6212263;23;20962;-75
2023/07/19 05:49:56;;;;;;;23.70;22.10;;;23.00;99.90;;;;;;6212515;23;20408;-75
2023/07/19 05:53:02;;;;;;;24.30;22.70;;;22.90;99.90;;;;;;6211923;23;20405;-72
2023/07/19 05:55:31;;;;;;;21.27;19.90;;;23.00;99.90;;;;;;6160662;23;20428;-72
2023/07/19 05:57:57;;;;;;;21.33;20.03;;;23.10;99.90;;;;;;6209147;23;20419;-73
2023/07/19 06:00:28;;;;;;;21.40;20.20;;;23.10;99.90;;;;;;6211740;23;20415;-72
2023/07/19 06:02:55;;;;;;;20.60;19.57;;;23.30;99.90;;;;;;6211882;23;20432;-73
2023/07/19 06:05:24;;;;;;;21.03;19.53;;;23.30;99.90;;;;;;6211999;23;20404;-72
2023/07/19 06:07:51;;;;;;;21.30;19.70;;;23.40;99.90;;;;;;6212419;23;20412;-72
2023/07/19 06:10:18;;;;;;;20.57;19.10;;;23.70;99.90;;;;;;6212327;23;20413;-72
2023/07/19 06:12:46;;;;;;;19.73;18.23;;;24.00;99.90;;;;;;6211419;23;20755;-72
2023/07/19 06:15:13;;;;;;;19.27;18.17;;;24.10;99.90;;;;;;6211406;23;20978;-72
2023/07/19 06:17:40;;;;;;;21.07;19.67;;;24.10;99.90;;;;;;6211911;23;20404;-72
2023/07/19 06:20:10;;;;;;;18.63;17.60;;;24.10;99.90;;;;;;6211895;23;20574;-72
2023/07/19 06:22:36;;;;;;;19.60;18.40;;;24.20;99.90;;;;;;6211936;23;20440;-72
2023/07/19 06:25:03;;;;;;;21.07;19.63;;;24.30;99.90;;;;;;6211792;23;20413;-72
2023/07/19 06:27:30;;;;;;;19.00;17.77;;;24.50;99.90;;;;;;6211721;23;20721;-75
2023/07/19 06:29:58;;;;;;;18.63;17.50;;;24.70;99.90;;;;;;6211847;23;20417;-73
2023/07/19 06:32:25;;;;;;;20.07;18.87;;;24.70;99.90;;;;;;6210587;23;20428;-73
2023/07/19 06:34:52;;;;;;;20.20;18.97;;;24.70;99.90;;;;;;6211483;23;20999;-73
2023/07/19 06:37:19;;;;;;;19.20;17.77;;;24.70;99.90;;;;;;6211855;23;20409;-71
2023/07/19 06:39:48;;;;;;;19.53;18.43;;;24.70;99.90;;;;;;6211669;23;20790;-71
2023/07/19 06:42:15;;;;;;;19.03;17.70;;;24.80;99.90;;;;;;6211450;23;20416;-72
2023/07/19 06:44:41;;;;;;;19.07;17.77;;;24.60;99.90;;;;;;6211379;23;20456;-72
2023/07/19 06:47:09;;;;;;;19.27;18.13;;;24.60;99.90;;;;;;6210649;23;20409;-72
2023/07/19 06:49:37;;;;;;;19.87;18.13;;;24.70;99.90;;;;;;6211603;23;20470;-71
2023/07/19 06:52:04;;;;;;;17.60;16.50;;;24.70;99.90;;;;;;6211477;23;20725;-72
2023/07/19 06:54:31;;;;;;;17.47;16.57;;;24.60;99.90;;;;;;6211373;23;20420;-73
2023/07/19 06:56:57;;;;;;;17.93;16.77;;;24.90;99.90;;;;;;6211801;23;20413;-73
2023/07/19 06:59:24;;;;;;;18.70;17.60;;;25.00;99.90;;;;;;6211471;23;20419;-73
2023/07/19 07:01:51;;;;;;;17.50;16.60;;;25.40;99.90;;;;;;6211517;23;20411;-72
2023/07/19 07:04:19;;;;;;;18.33;17.23;;;25.30;99.90;;;;;;6210667;23;20475;-73
2023/07/19 07:06:45;;;;;;;20.07;18.87;;;25.30;99.90;;;;;;6211700;23;20411;-72
2023/07/19 07:09:14;;;;;;;19.23;18.13;;;25.90;99.90;;;;;;6211244;23;20934;-72
2023/07/19 07:11:40;;;;;;;18.97;17.87;;;26.00;99.90;;;;;;6211889;23;20773;-71
2023/07/19 07:14:07;;;;;;;17.97;16.97;;;26.40;99.90;;;;;;6211400;23;20417;-72
2023/07/19 07:16:34;;;;;;;19.00;17.63;;;26.80;99.90;;;;;;6211755;23;20496;-71
2023/07/19 07:19:01;;;;;;;19.13;18.13;;;27.00;99.90;;;;;;6211090;23;20423;-72
2023/07/19 07:21:29;;;;;;;19.53;18.17;;;27.30;99.90;;;;;;6211887;23;20405;-72
2023/07/19 07:23:55;;;;;;;18.33;17.10;;;27.90;99.70;;;;;;6213053;23;20443;-72
2023/07/19 07:26:22;;;;;;;19.13;18.13;;;28.40;97.90;;;;;;6213565;23;20409;-72
2023/07/19 07:28:49;;;;;;;18.80;17.80;;;29.20;96.60;;;;;;6213059;23;20411;-73
2023/07/19 07:31:15;;;;;;;17.27;16.47;;;29.90;94.60;;;;;;6213062;23;20416;-73
2023/07/19 07:33:42;;;;;;;18.40;17.47;;;29.90;94.10;;;;;;6210399;23;20931;-74
2023/07/19 07:36:09;;;;;;;17.53;16.57;;;30.00;93.50;;;;;;6212274;23;20413;-75
2023/07/19 07:38:37;;;;;;;18.57;17.47;;;30.40;93.00;;;;;;6213162;23;20415;-74
2023/07/19 07:41:05;;;;;;;18.47;17.57;;;30.80;92.30;;;;;;6213638;23;20431;-74
2023/07/19 07:43:33;;;;;;;19.10;17.83;;;31.10;90.50;;;;;;6212521;23;21090;-75
2023/07/19 07:46:00;;;;;;;19.53;18.37;;;31.80;89.20;;;;;;6212857;23;20499;-74
2023/07/19 07:48:26;;;;;;;18.13;17.13;;;32.10;85.70;;;;;;6212411;23;20435;-73
2023/07/19 07:50:53;;;;;;;17.83;16.93;;;32.20;85.60;;;;;;6211999;23;20887;-74
2023/07/19 07:53:20;;;;;;;18.07;16.87;;;32.30;84.30;;;;;;6213046;23;20401;-73
2023/07/19 07:55:49;;;;;;;17.13;16.23;;;32.90;79.80;;;;;;6212976;23;20424;-73
2023/07/19 07:58:17;;;;;;;18.23;17.13;;;33.40;79.00;;;;;;6213491;23;20408;-71
2023/07/19 08:00:45;;;;;;;18.27;17.30;;;34.10;77.70;;;;;;6213064;23;20433;-71
2023/07/19 08:03:13;;;;;;;19.23;18.13;;;35.10;71.90;;;;;;6212516;23;21273;-72
2023/07/19 08:05:41;;;;;;;20.97;19.77;;;35.50;70.00;;;;;;6212692;23;20404;-71
2023/07/19 08:08:08;;;;;;;18.80;17.90;;;36.20;66.70;;;;;;6212595;23;20409;-72
2023/07/19 08:10:37;;;;;;;18.27;17.27;;;36.50;64.80;;;;;;6213085;23;20409;-72
2023/07/19 08:13:06;;;;;;;16.87;16.20;;;36.70;63.60;;;;;;6212451;23;20439;-71
2023/07/19 08:15:32;;;;;;;18.97;17.70;;;36.80;57.90;;;;;;6212077;23;20449;-72
2023/07/19 08:18:00;;;;;;;18.10;17.30;;;36.60;58.60;;;;;;6210146;23;20429;-72
2023/07/19 08:20:26;;;;;;;18.10;17.10;;;36.80;57.30;;;;;;6212541;23;20412;-72
2023/07/19 08:22:53;;;;;;;18.50;17.60;;;37.00;56.00;;;;;;6211723;23;20416;-71
2023/07/19 08:25:21;;;;;;;19.00;17.97;;;37.30;53.10;;;;;;6212555;23;20435;-72
2023/07/19 08:27:48;;;;;;;19.13;17.83;;;36.80;47.90;;;;;;6212699;23;20417;-72
2023/07/19 08:30:16;;;;;;;17.40;16.50;;;36.30;47.00;;;;;;6210343;23;20413;-72
2023/07/19 08:32:44;;;;;;;17.20;16.17;;;35.70;46.30;;;;;;6211714;23;20940;-72
2023/07/19 08:35:11;;;;;;;17.43;16.67;;;35.20;47.70;;;;;;6211786;23;20455;-71
2023/07/19 08:37:38;;;;;;;16.90;16.20;;;35.90;47.30;;;;;;6211663;23;20412;-71
2023/07/19 08:40:07;;;;;;;17.33;16.43;;;36.00;45.60;;;;;;6210733;23;20731;-71
2023/07/19 08:42:34;;;;;;;16.07;15.27;;;36.10;44.10;;;;;;6212350;23;20420;-72
2023/07/19 08:45:00;;;;;;;17.10;16.30;;;36.00;43.10;;;;;;6211523;23;20480;-72
2023/07/19 08:47:30;;;;;;;17.53;16.63;;;36.50;42.20;;;;;;6208409;23;20439;-75
2023/07/19 08:49:59;;;;;;;16.30;15.53;;;36.60;41.80;;;;;;6208405;23;20413;-73
2023/07/19 08:52:28;;;;;;;16.17;15.57;;;36.70;41.60;;;;;;6211479;23;20726;-77
2023/07/19 08:54:54;;;;;;;16.47;15.87;;;36.30;41.00;;;;;;6211612;23;20892;-80
2023/07/19 08:57:21;;;;;;;16.80;16.20;;;36.50;40.20;;;;;;6210546;23;20413;-80
2023/07/19 08:59:48;;;;;;;16.40;15.60;;;36.80;40.00;;;;;;6215139;23;20405;-82
2023/07/19 09:02:15;;;;;;;16.40;15.50;;;36.50;39.50;;;;;;6215679;23;20401;-74
2023/07/19 09:05:10;;;;;;;16.40;15.80;;;36.50;39.40;;;;;;6218076;23;20452;-74
2023/07/19 09:07:39;;;;;;;17.17;16.50;;;36.70;38.60;;;;;;6221761;23;20404;-73
2023/07/19 09:10:07;;;;;;;16.67;16.07;;;36.40;39.30;;;;;;6212526;23;20729;-74
2023/07/19 09:12:38;;;;;;;17.00;16.30;;;36.80;39.20;;;;;;6211616;23;20499;-74
2023/07/19 09:15:06;;;;;;;16.73;16.00;;;36.80;38.60;;;;;;6211385;23;20436;-73
2023/07/19 09:17:37;;;;;;;18.40;17.50;;;36.60;39.70;;;;;;6211502;23;20408;-73
2023/07/19 09:20:06;;;;;;;18.63;17.73;;;37.40;38.20;;;;;;6212092;23;20452;-74
2023/07/19 09:22:35;;;;;;;17.50;16.70;;;37.00;37.70;;;;;;6211553;23;20419;-73
2023/07/19 09:25:03;;;;;;;16.53;15.90;;;37.30;38.20;;;;;;6211570;23;20764;-74
2023/07/19 09:27:30;;;;;;;18.10;17.40;;;38.20;36.80;;;;;;6211339;23;20912;-74
2023/07/19 09:29:57;;;;;;;18.10;17.30;;;38.40;36.30;;;;;;6211167;23;20470;-74
2023/07/19 09:32:24;;;;;;;17.97;17.27;;;38.90;35.60;;;;;;6211239;23;20400;-74
2023/07/19 09:34:55;;;;;;;27.07;25.87;;;38.00;35.00;;;;;;6211549;23;20504;-74
2023/07/19 09:37:24;;;;;;;18.07;17.37;;;37.70;36.00;;;;;;6211664;23;20460;-73
2023/07/19 09:39:52;;;;;;;17.83;17.03;;;37.60;34.50;;;;;;6211335;23;20918;-74
2023/07/19 09:42:20;;;;;;;18.50;17.70;;;37.40;35.80;;;;;;6211377;23;20408;-74
2023/07/19 09:44:48;;;;;;;18.73;17.93;;;37.20;36.10;;;;;;6211089;23;20532;-73
2023/07/19 09:47:15;;;;;;;17.73;17.03;;;36.90;36.10;;;;;;6210739;23;20431;-73
2023/07/19 09:49:43;;;;;;;18.37;17.57;;;37.00;35.30;;;;;;6211130;23;20759;-74
2023/07/19 09:52:14;;;;;;;18.70;17.90;;;37.30;36.30;;;;;;6211622;23;20504;-73
2023/07/19 09:54:44;;;;;;;16.80;16.10;;;37.70;35.50;;;;;;6211054;23;20829;-74
2023/07/19 09:57:10;;;;;;;17.50;16.70;;;37.70;35.00;;;;;;6211256;23;20466;-74
2023/07/19 09:59:40;;;;;;;17.60;16.90;;;37.90;34.60;;;;;;6211746;23;20734;-74
2023/07/19 10:02:07;;;;;;;17.30;16.70;;;39.30;33.30;;;;;;6211448;23;20404;-73
2023/07/19 10:04:38;;;;;;;19.57;18.30;;;39.30;32.20;;;;;;6211066;23;20780;-73
2023/07/19 10:07:09;;;;;;;17.30;16.60;;;39.00;32.60;;;;;;6211309;23;20416;-74
2023/07/19 10:09:40;;;;;;;17.83;17.13;;;39.20;31.80;;;;;;6211177;23;20716;-74
2023/07/19 10:12:21;;;;;;;17.53;16.93;;;39.20;31.40;;;;;;6211231;23;20408;-74
2023/07/19 10:14:52;;;;;;;17.03;16.43;;;39.40;31.60;;;;;;6210937;23;20440;-74
2023/07/19 10:17:19;;;;;;;18.10;17.37;;;39.70;30.90;;;;;;6211423;23;20686;-74
2023/07/19 10:20:12;;;;;;;17.07;16.27;;;39.70;30.60;;;;;;6211739;23;20470;-73
2023/07/19 10:22:56;;;;;;;16.73;16.13;;;38.90;30.80;;;;;;6211089;23;20857;-74
2023/07/19 10:25:25;;;;;;;17.23;16.63;;;37.70;32.20;;;;;;6211516;23;20440;-73
2023/07/19 10:28:01;;;;;;;19.30;18.40;;;37.70;32.80;;;;;;6211523;23;20409;-74
2023/07/19 10:30:47;;;;;;;17.33;16.53;;;37.00;33.80;;;;;;6211420;23;20392;-74
2023/07/19 10:33:15;;;;;;;16.50;15.90;;;37.70;33.80;;;;;;6211301;23;20409;-74
2023/07/19 10:35:42;;;;;;;16.87;16.17;;;37.40;33.10;;;;;;6211238;23;20404;-74
2023/07/19 10:38:14;;;;;;;17.17;16.47;;;36.50;34.30;;;;;;6211141;23;20420;-73
2023/07/19 10:40:43;;;;;;;16.43;15.83;;;36.40;34.50;;;;;;6210985;23;20397;-74
2023/07/19 10:43:11;;;;;;;17.00;16.30;;;37.00;34.20;;;;;;6211471;23;20405;-74
2023/07/19 10:45:39;;;;;;;16.07;15.50;;;37.90;34.60;;;;;;6211265;23;20956;-73
2023/07/19 10:48:06;;;;;;;18.37;17.53;;;38.10;34.30;;;;;;6211614;23;20431;-74
2023/07/19 10:50:32;;;;;;;18.17;17.30;;;38.30;34.30;;;;;;6211121;23;20405;-74
2023/07/19 10:52:59;;;;;;;16.83;16.23;;;38.80;33.90;;;;;;6211609;23;20413;-74
2023/07/19 10:55:28;;;;;;;16.60;15.80;;;39.70;32.40;;;;;;6211271;23;20408;-74
2023/07/19 10:57:55;;;;;;;16.93;16.33;;;39.80;33.00;;;;;;6211599;23;20950;-74
2023/07/19 11:00:23;;;;;;;17.80;16.23;;;38.90;33.70;;;;;;6214056;23;20408;-73
2023/07/19 11:02:50;;;;;;;16.13;15.60;;;38.40;33.70;;;;;;6213913;23;20408;-73
2023/07/19 11:05:17;;;;;;;16.00;15.30;;;36.90;35.50;;;;;;6212947;23;20471;-73
2023/07/19 11:07:44;;;;;;;18.20;17.30;;;36.20;37.20;;;;;;6212674;23;20412;-74
2023/07/19 11:10:11;;;;;;;17.83;17.13;;;36.50;36.80;;;;;;6213159;23;20409;-74
2023/07/19 11:12:38;;;;;;;15.07;14.37;;;36.40;36.90;;;;;;6212784;23;20416;-73
2023/07/19 11:15:09;;;;;;;16.70;15.80;;;36.50;36.80;;;;;;6212624;23;20440;-73
2023/07/19 11:17:38;;;;;;;15.50;14.90;;;36.40;37.10;;;;;;6213027;23;20393;-73
2023/07/19 11:20:05;;;;;;;18.07;17.03;;;36.40;36.90;;;;;;6212533;23;20412;-73
2023/07/19 11:22:33;;;;;;;17.47;16.80;;;36.30;37.50;;;;;;6212738;23;20414;-72
2023/07/19 11:25:00;;;;;;;16.83;16.03;;;36.20;37.90;;;;;;6213182;23;20451;-74
2023/07/19 11:27:34;;;;;;;16.30;15.70;;;35.40;38.60;;;;;;6213046;23;20411;-73
2023/07/19 11:30:01;;;;;;;16.10;15.50;;;34.60;39.00;;;;;;6212775;23;20435;-74
2023/07/19 11:32:28;;;;;;;17.77;16.80;;;33.70;39.20;;;;;;6212680;23;21007;-72
2023/07/19 11:34:57;;;;;;;16.20;15.50;;;33.40;40.50;;;;;;6212899;23;20412;-72
2023/07/19 11:37:26;;;;;;;15.80;15.20;;;33.70;40.50;;;;;;6212745;23;20412;-74
2023/07/19 11:39:54;;;;;;;16.17;15.57;;;33.90;40.80;;;;;;6213233;23;20408;-73
2023/07/19 11:42:40;;;;;;;15.80;15.03;;;34.10;40.80;;;;;;6213111;23;20415;-73
2023/07/19 11:45:09;;;;;;;16.80;15.80;;;34.50;40.10;;;;;;6213082;23;20436;-71
2023/07/19 11:47:35;;;;;;;16.10;15.40;;;35.00;39.20;;;;;;6213090;23;20431;-72
2023/07/19 11:50:04;;;;;;;17.47;16.47;;;35.60;39.60;;;;;;6212771;23;20408;-72
2023/07/19 11:52:32;;;;;;;16.17;15.60;;;35.70;38.30;;;;;;6212622;23;20745;-73
2023/07/19 11:54:58;;;;;;;16.57;15.87;;;35.90;37.80;;;;;;6212947;23;20402;-73
2023/07/19 11:57:25;;;;;;;17.03;16.33;;;36.30;37.60;;;;;;6212613;23;20415;-73
2023/07/19 11:59:52;;;;;;;17.33;16.63;;;36.30;38.20;;;;;;6213161;23;20736;-73
2023/07/19 12:02:19;;;;;;;16.00;15.30;;;36.60;37.70;;;;;;6213572;23;20415;-73
2023/07/19 12:04:45;;;;;;;16.83;16.03;;;36.50;37.90;;;;;;6212802;23;20436;-73
2023/07/19 12:07:13;;;;;;;17.83;17.03;;;36.30;37.30;;;;;;6212590;23;20422;-73
2023/07/19 12:09:40;;;;;;;18.40;17.17;;;35.90;38.30;;;;;;6211828;23;20420;-72
2023/07/19 12:12:09;;;;;;;16.77;16.07;;;35.70;38.20;;;;;;6212454;23;20897;-73
2023/07/19 12:14:36;;;;;;;17.70;17.00;;;36.00;38.80;;;;;;6212418;23;20495;-72
2023/07/19 12:17:04;;;;;;;16.13;15.53;;;35.70;39.10;;;;;;6213087;23;20393;-72
2023/07/19 12:19:30;;;;;;;16.30;15.50;;;35.80;39.00;;;;;;6213430;23;20413;-72
2023/07/19 12:21:57;;;;;;;17.37;16.47;;;36.50;38.40;;;;;;6213239;23;20412;-74
2023/07/19 12:24:25;;;;;;;17.27;16.37;;;36.70;36.90;;;;;;6212930;23;20540;-73
2023/07/19 12:26:52;;;;;;;18.90;18.00;;;36.80;37.00;;;;;;6213360;23;20409;-73
2023/07/19 12:29:19;;;;;;;18.47;17.53;;;36.60;36.70;;;;;;6213309;23;20437;-72
2023/07/19 12:31:46;;;;;;;16.03;15.33;;;36.80;37.30;;;;;;6212384;23;20416;-73
2023/07/19 12:34:13;;;;;;;17.10;16.20;;;37.00;36.10;;;;;;6213099;23;20826;-73